To NAV CANADA Home Page Login to a new session Search on AWWS site Feedback and Comments Disclaimer Vers la page française équivalente Tips FAQ What's new on the site To the Forecasts and Observations / NOTAM section To "File a Flight Plan" website Publications and other links Update of the User's profile FIC Telephone Numbers My Weather Data Folder Route Weather Data Regional Weather Data Local Weather Data To the Forecasts and Observations / NOTAM section
Request Generated 09/27/2016 at 06:55:14 UTC . Weather information available at that time is displayed.

METAR/TAF

TRENTON/ON    

SPECI CYTR 270615Z 00000KT 8SM MIFG FEW090 10/09 A2983 RMK AC1 MIFG ALQDS SLP104=
METAR CYTR 270600Z 00000KT 15SM FEW090 11/10 A2983 RMK AC1 SLP104=
METAR CYTR 270500Z 23003KT 15SM FEW090 13/10 A2984 RMK AC1 SLP106=
METAR CYTR 270400Z 26004KT 15SM FEW083 13/10 A2985 RMK AC2 SLP109=

TAF CYTR 270530Z 2706/2806 VRB03KT P6SM SCT090
FM271500 21010G20KT P6SM SCT025 BKN080 TEMPO 2715/2723 P6SM -SHRA
BKN025 OVC080
FM272300 20008KT P6SM SCT020 OVC050 TEMPO 2723/2806 6SM -SHRA BR
OVC020
BECMG 2804/2806 31005KT
RMK NXT FCST BY 271200Z=
Your time UTC time
Weather data provided by Environment Canada and NAV CANADA